Time;durP1;ratioP1;P1;durP2;ratioP2;P2;SDS_P1;SDS_P2;PMS_P1;PMS_P2;Temp;Humidity;BMP_temperature;BMP_pressure;BME280_temperature;BME280_humidity;BME280_pressure;Samples;Min_cycle;Max_cycle;Signal;HPM_P1;HPM_P2
2023/02/11 00:00:58;;;;;;;24.63;13.35;;;;;;;-1.97;67.94;96542.31;4997571;28;20206;-79
2023/02/11 00:03:26;;;;;;;21.85;12.15;;;;;;;-2.00;67.11;96544.91;5032797;28;20203;-78
2023/02/11 00:05:59;;;;;;;23.45;12.15;;;;;;;-2.07;67.40;96538.09;5032954;28;20261;-79
2023/02/11 00:08:26;;;;;;;18.90;9.68;;;;;;;-2.08;67.42;96540.69;5032438;28;20286;-79
2023/02/11 00:10:54;;;;;;;19.23;10.27;;;;;;;-2.10;67.25;96540.69;5032958;28;20234;-79
2023/02/11 00:13:22;;;;;;;24.50;13.18;;;;;;;-2.10;67.13;96543.28;5032373;28;20623;-79
2023/02/11 00:15:49;;;;;;;19.70;11.18;;;;;;;-2.12;67.02;96534.72;5032010;28;20299;-79
2023/02/11 00:18:17;;;;;;;17.35;10.70;;;;;;;-2.13;67.37;96540.72;5031899;28;20207;-79
2023/02/11 00:20:44;;;;;;;23.15;11.88;;;;;;;-2.21;67.66;96540.81;5031631;28;20200;-79
2023/02/11 00:23:11;;;;;;;22.13;11.52;;;;;;;-2.18;67.81;96545.06;5031680;28;20199;-79
2023/02/11 00:25:41;;;;;;;26.90;14.05;;;;;;;-2.21;68.83;96540.81;5031752;28;20239;-79
2023/02/11 00:28:08;;;;;;;16.27;10.30;;;;;;;-2.22;68.38;96538.25;5031095;28;20245;-79
2023/02/11 00:30:36;;;;;;;20.17;9.88;;;;;;;-2.24;68.58;96540.84;5031834;28;20203;-79
2023/02/11 00:33:03;;;;;;;18.48;10.85;;;;;;;-2.24;67.94;96542.56;5031728;28;20211;-79
2023/02/11 00:35:30;;;;;;;21.10;10.75;;;;;;;-2.30;68.22;96530.63;5031724;28;20259;-79
2023/02/11 00:37:57;;;;;;;19.05;10.70;;;;;;;-2.29;68.40;96541.75;5031599;28;20281;-79
2023/02/11 00:40:24;;;;;;;16.50;10.68;;;;;;;-2.39;68.63;96540.09;5031704;28;20199;-79
2023/02/11 00:42:51;;;;;;;13.52;9.45;;;;;;;-2.40;68.73;96538.38;5031671;28;20215;-79
2023/02/11 00:45:19;;;;;;;15.88;10.55;;;;;;;-2.41;68.25;96540.09;5031474;28;20211;-79
2023/02/11 00:47:48;;;;;;;20.73;11.00;;;;;;;-2.40;68.65;96544.38;5031996;28;20196;-79
2023/02/11 00:50:15;;;;;;;19.20;11.30;;;;;;;-2.43;68.28;96533.28;5031635;28;20203;-78
2023/02/11 00:52:41;;;;;;;22.58;11.70;;;;;;;-2.41;68.28;96531.53;5031281;28;20207;-79
2023/02/11 00:55:08;;;;;;;21.10;11.07;;;;;;;-2.46;68.03;96528.16;5031439;28;20239;-79
2023/02/11 00:57:35;;;;;;;16.50;9.27;;;;;;;-2.46;68.04;96529.03;5031714;28;20207;-79
2023/02/11 01:00:02;;;;;;;23.00;11.00;;;;;;;-2.51;68.04;96520.50;5031514;28;20211;-79
2023/02/11 01:02:29;;;;;;;15.70;10.48;;;;;;;-2.57;67.96;96526.53;5031410;28;20717;-79
2023/02/11 01:04:58;;;;;;;19.58;9.93;;;;;;;-2.67;68.59;96518.91;4980355;28;20211;-79
2023/02/11 01:07:25;;;;;;;19.15;10.35;;;;;;;-2.72;68.88;96525.78;5031207;28;20238;-79
2023/02/11 01:09:52;;;;;;;15.18;9.68;;;;;;;-2.74;68.81;96518.09;5031719;28;20267;-80
2023/02/11 01:12:19;;;;;;;20.10;10.05;;;;;;;-2.77;69.34;96522.41;5031431;28;20682;-79
2023/02/11 01:14:46;;;;;;;14.80;9.88;;;;;;;-2.82;69.25;96518.16;5031224;28;20269;-79
2023/02/11 01:17:13;;;;;;;17.92;11.15;;;;;;;-2.85;69.35;96509.63;5031172;28;20249;-79
2023/02/11 01:19:40;;;;;;;20.15;10.60;;;;;;;-2.91;69.35;96518.19;5031255;28;20261;-79
2023/02/11 01:22:08;;;;;;;21.30;11.55;;;;;;;-2.88;69.54;96513.06;5031609;28;20206;-79
2023/02/11 01:24:35;;;;;;;13.15;10.05;;;;;;;-2.82;69.90;96504.47;5030994;28;20204;-79
2023/02/11 01:27:01;;;;;;;21.00;10.68;;;;;;;-2.76;69.78;96511.25;5031335;28;20277;-79
2023/02/11 01:29:28;;;;;;;18.10;9.00;;;;;;;-2.72;69.47;96513.78;5031029;28;20246;-80
2023/02/11 01:31:55;;;;;;;17.27;8.65;;;;;;;-2.75;69.74;96513.81;5030920;28;20196;-79
2023/02/11 01:34:22;;;;;;;15.07;8.68;;;;;;;-2.71;69.29;96519.78;5030946;28;20223;-79
2023/02/11 01:36:48;;;;;;;23.58;9.70;;;;;;;-2.73;70.05;96508.66;5031165;28;20207;-79
2023/02/11 01:39:17;;;;;;;18.58;9.60;;;;;;;-2.72;69.71;96513.78;5031062;28;20230;-79
2023/02/11 01:41:43;;;;;;;22.63;10.73;;;;;;;-2.71;69.79;96512.06;5014686;28;20686;-79
2023/02/11 01:44:28;;;;;;;18.63;9.65;;;;;;;-2.72;69.47;96503.53;5034422;28;20211;-79
2023/02/11 01:46:55;;;;;;;21.45;9.27;;;;;;;-2.72;69.91;96511.22;4983205;28;20200;-79
2023/02/11 01:49:26;;;;;;;12.68;8.30;;;;;;;-2.72;69.49;96507.81;4999350;28;20196;-79
2023/02/11 01:51:58;;;;;;;22.05;10.60;;;;;;;-2.73;68.86;96506.09;5034367;28;20680;-79
2023/02/11 01:57:23;;;;;;;15.43;9.50;;;;;;;-2.67;68.44;96508.63;5034418;28;20204;-79
2023/02/11 02:00:10;;;;;;;19.63;9.10;;;;;;;-2.69;68.53;96508.63;5034835;28;20282;-79
2023/02/11 02:02:42;;;;;;;21.65;10.40;;;;;;;-2.71;69.22;96506.94;5034395;28;20261;-79
2023/02/11 02:05:19;;;;;;;14.23;10.02;;;;;;;-2.72;68.80;96506.09;5034520;28;20218;-79
2023/02/11 02:07:52;;;;;;;16.27;9.90;;;;;;;-2.72;69.21;96510.38;5034317;28;20253;-79
2023/02/11 02:10:24;;;;;;;22.00;10.27;;;;;;;-2.77;68.56;96501.84;5034465;28;20227;-79
2023/02/11 02:12:51;;;;;;;15.38;9.25;;;;;;;-2.86;68.96;96503.63;5034275;28;20654;-79
2023/02/11 02:15:24;;;;;;;22.38;10.35;;;;;;;-2.96;68.98;96499.41;4983211;28;20227;-79
2023/02/11 02:17:58;;;;;;;18.05;8.80;;;;;;;-3.00;69.42;96502.00;5034207;28;20867;-78
2023/02/11 02:20:52;;;;;;;25.58;10.48;;;;;;;-3.07;71.78;96508.91;4984051;28;20718;-79
2023/02/11 02:23:28;;;;;;;20.55;11.07;;;;;;;-3.10;70.63;96505.50;5033977;28;20207;-79
2023/02/11 02:26:49;;;;;;;18.17;9.95;;;;;;;-3.12;70.77;96501.22;5033707;28;20234;-79
2023/02/11 02:30:06;;;;;;;17.58;8.75;;;;;;;-3.18;69.94;96496.13;5034044;28;20208;-79
2023/02/11 02:32:50;;;;;;;17.75;10.27;;;;;;;-3.25;70.09;96501.28;4972505;28;20631;-79
2023/02/11 02:35:32;;;;;;;17.77;9.57;;;;;;;-3.29;70.54;96502.16;4972501;28;20217;-78
2023/02/11 02:38:03;;;;;;;13.68;9.02;;;;;;;-3.30;70.03;96506.44;4972233;28;20206;-78
2023/02/11 02:40:32;;;;;;;17.98;9.45;;;;;;;-3.30;71.11;96503.88;4972228;28;20747;-78
2023/02/11 02:43:01;;;;;;;11.70;7.80;;;;;;;-3.36;70.83;96500.50;4972206;28;20209;-79
2023/02/11 02:45:28;;;;;;;19.75;8.82;;;;;;;-3.37;70.51;96503.94;4972326;28;20209;-78
2023/02/11 02:47:56;;;;;;;14.48;8.13;;;;;;;-3.40;70.39;96499.66;4972100;28;20201;-79
2023/02/11 02:50:29;;;;;;;13.90;8.43;;;;;;;-3.44;70.70;96501.41;4972182;28;20264;-78
2023/02/11 02:53:09;;;;;;;15.25;8.40;;;;;;;-3.46;70.41;96499.69;4971813;28;20638;-78
2023/02/11 02:55:51;;;;;;;16.67;9.45;;;;;;;-3.47;70.30;96505.66;4972039;28;20233;-78
2023/02/11 02:58:37;;;;;;;15.95;9.45;;;;;;;-3.43;70.20;96515.06;4971866;28;20650;-78
2023/02/11 03:01:13;;;;;;;13.35;8.77;;;;;;;-3.43;69.88;96504.81;4971977;28;20205;-78
2023/02/11 03:03:49;;;;;;;25.17;11.50;;;;;;;-3.41;69.73;96510.78;4971729;28;20205;-78
2023/02/11 03:06:25;;;;;;;24.42;11.93;;;;;;;-3.36;69.61;96509.06;4972014;28;20353;-78
2023/02/11 03:08:57;;;;;;;22.00;9.60;;;;;;;-3.32;69.56;96515.88;4994594;28;20203;-78
2023/02/11 03:11:25;;;;;;;11.80;8.93;;;;;;;-3.39;69.93;96511.63;5032867;28;20207;-78
2023/02/11 03:13:54;;;;;;;20.30;9.68;;;;;;;-3.42;69.76;96511.66;5032781;28;20250;-78
2023/02/11 03:16:25;;;;;;;19.80;10.70;;;;;;;-3.39;69.52;96503.94;5032682;28;20227;-78
2023/02/11 03:18:59;;;;;;;18.27;9.45;;;;;;;-3.39;68.83;96506.50;5033036;28;20202;-79
2023/02/11 03:21:26;;;;;;;10.85;6.80;;;;;;;-3.42;69.89;96510.81;5032694;28;20203;-78
2023/02/11 03:23:56;;;;;;;15.43;9.20;;;;;;;-3.45;69.97;96517.66;5032593;28;20708;-78
2023/02/11 03:26:28;;;;;;;18.38;8.45;;;;;;;-3.55;69.96;96510.84;5032496;28;20239;-79
2023/02/11 03:29:00;;;;;;;15.45;8.68;;;;;;;-3.56;70.03;96504.00;5032663;28;20582;-79
2023/02/11 03:31:33;;;;;;;20.02;10.27;;;;;;;-3.55;70.38;96500.56;4981010;28;20210;-78
2023/02/11 03:34:05;;;;;;;15.73;9.65;;;;;;;-3.62;69.78;96505.75;5032487;28;20615;-78
2023/02/11 03:36:39;;;;;;;18.05;8.80;;;;;;;-3.69;69.97;96501.50;5032626;28;20625;-78
2023/02/11 03:39:10;;;;;;;20.20;10.70;;;;;;;-3.76;69.94;96504.09;5032199;28;20601;-78
2023/02/11 03:41:38;;;;;;;21.17;9.63;;;;;;;-3.77;69.99;96504.91;5032628;28;20257;-78
2023/02/11 03:44:07;;;;;;;17.15;10.38;;;;;;;-3.78;70.48;96497.22;5032354;28;20203;-78
2023/02/11 03:46:39;;;;;;;15.13;8.90;;;;;;;-3.81;70.33;96507.50;5032341;28;20207;-78
2023/02/11 03:49:12;;;;;;;17.08;8.80;;;;;;;-3.89;70.15;96502.41;5032276;28;20281;-78
2023/02/11 03:51:40;;;;;;;16.15;10.77;;;;;;;-3.82;70.79;96506.66;5032001;28;20211;-78
2023/02/11 03:54:14;;;;;;;14.13;8.43;;;;;;;-3.79;70.46;96509.19;5032479;28;20261;-78
2023/02/11 03:56:47;;;;;;;16.50;9.20;;;;;;;-3.84;70.64;96503.25;5032128;28;20265;-79
2023/02/11 03:59:13;;;;;;;16.48;9.55;;;;;;;-3.82;70.67;96496.41;5032127;28;20207;-78
2023/02/11 04:01:40;;;;;;;16.00;9.00;;;;;;;-3.83;70.19;96494.69;5032267;28;20207;-78
2023/02/11 04:04:08;;;;;;;20.02;9.20;;;;;;;-3.83;70.43;96494.69;5031381;28;20199;-78
2023/02/11 04:06:35;;;;;;;15.25;8.77;;;;;;;-3.84;69.96;96495.56;5031920;28;20214;-78
2023/02/11 04:09:02;;;;;;;16.50;8.48;;;;;;;-3.84;70.02;96502.38;5032046;28;20644;-78
2023/02/11 04:11:29;;;;;;;16.48;8.25;;;;;;;-3.86;70.06;96506.66;5032073;28;20221;-78
2023/02/11 04:13:56;;;;;;;13.02;7.65;;;;;;;-3.89;69.84;96504.13;5031897;28;20195;-78
2023/02/11 04:16:22;;;;;;;15.40;9.38;;;;;;;-3.92;69.81;96504.97;5031823;28;20652;-78
2023/02/11 04:18:49;;;;;;;13.60;7.90;;;;;;;-3.91;69.65;96505.84;5031658;28;20211;-78
2023/02/11 04:21:17;;;;;;;12.68;9.00;;;;;;;-3.91;69.40;96509.25;5031941;28;20207;-78
2023/02/11 04:23:44;;;;;;;23.02;9.63;;;;;;;-3.91;69.17;96506.69;5031821;28;20583;-78
2023/02/11 04:26:11;;;;;;;16.30;9.55;;;;;;;-3.92;69.51;96504.97;5031962;28;20697;-78
2023/02/11 04:28:38;;;;;;;22.52;8.52;;;;;;;-3.93;69.71;96502.44;5031791;28;20654;-78
2023/02/11 04:31:05;;;;;;;19.75;9.93;;;;;;;-3.86;71.42;96501.53;5031398;28;20246;-79
2023/02/11 04:33:31;;;;;;;12.65;8.80;;;;;;;-3.79;71.57;96505.78;5031756;28;20658;-77
2023/02/11 04:35:58;;;;;;;16.90;11.13;;;;;;;-3.70;72.31;96500.66;5036081;28;20227;-77
2023/02/11 04:38:26;;;;;;;17.33;9.75;;;;;;;-3.70;70.56;96494.66;5052926;28;20260;-78
2023/02/11 04:40:53;;;;;;;15.05;9.75;;;;;;;-3.76;69.43;96498.06;5052467;28;20289;-79
2023/02/11 04:43:20;;;;;;;18.15;10.55;;;;;;;-3.84;69.13;96497.25;5052059;28;20816;-79
2023/02/11 04:45:47;;;;;;;16.02;9.15;;;;;;;-3.84;68.99;96500.69;5052291;28;20720;-79
2023/02/11 04:48:13;;;;;;;15.13;8.38;;;;;;;-3.91;69.35;96496.44;5000992;28;20260;-78
2023/02/11 04:50:41;;;;;;;16.67;9.57;;;;;;;-3.98;70.60;96492.19;5052731;28;20269;-79
2023/02/11 04:53:07;;;;;;;22.45;10.18;;;;;;;-4.00;70.88;96493.91;5052265;28;20198;-79
2023/02/11 04:55:36;;;;;;;10.95;9.10;;;;;;;-4.06;70.73;96499.03;5052437;28;20694;-79
2023/02/11 04:58:03;;;;;;;14.70;8.70;;;;;;;-4.11;70.82;96490.50;5052217;28;20210;-81
2023/02/11 05:00:30;;;;;;;15.60;8.15;;;;;;;-4.15;70.49;96487.09;5052210;28;20207;-80
2023/02/11 05:02:56;;;;;;;19.50;9.18;;;;;;;-4.27;70.13;96489.69;5052579;28;20256;-79
2023/02/11 05:05:23;;;;;;;16.38;9.02;;;;;;;-4.37;70.39;96496.50;5052490;28;20604;-79
2023/02/11 05:07:50;;;;;;;19.17;8.52;;;;;;;-4.46;70.79;96491.41;5052350;28;20206;-79
2023/02/11 05:10:17;;;;;;;15.95;8.73;;;;;;;-4.52;71.02;96483.75;5052388;28;20531;-78
2023/02/11 05:12:48;;;;;;;13.48;8.45;;;;;;;-4.51;70.83;96492.28;5052127;28;20715;-77
2023/02/11 05:15:14;;;;;;;13.15;8.13;;;;;;;-4.49;70.51;96488.00;5054149;28;20222;-76
2023/02/11 05:17:41;;;;;;;10.40;8.02;;;;;;;-4.47;70.72;96484.59;5056109;28;20207;-77
2023/02/11 05:20:09;;;;;;;17.08;8.27;;;;;;;-4.45;70.62;96482.00;5055818;28;20206;-77
2023/02/11 05:22:36;;;;;;;17.30;9.70;;;;;;;-4.45;70.82;96476.91;5020613;28;20206;-77
2023/02/11 05:25:03;;;;;;;14.50;8.55;;;;;;;-4.46;70.72;96470.06;5055755;28;20217;-77
2023/02/11 05:27:30;;;;;;;17.70;9.65;;;;;;;-4.42;70.81;96479.44;5056176;28;20210;-77
2023/02/11 05:29:58;;;;;;;16.92;7.30;;;;;;;-4.40;70.49;96473.47;5020602;28;20210;-77
2023/02/11 05:32:25;;;;;;;22.20;8.70;;;;;;;-4.34;70.52;96489.69;5055840;28;20265;-77
2023/02/11 05:34:54;;;;;;;11.65;9.18;;;;;;;-4.30;70.03;96481.16;5055634;28;20207;-77
2023/02/11 05:37:21;;;;;;;16.42;8.73;;;;;;;-4.23;69.88;96486.25;5055697;28;20632;-76
2023/02/11 05:39:48;;;;;;;22.52;9.77;;;;;;;-4.21;69.28;96483.69;5055635;28;20248;-76
2023/02/11 05:42:15;;;;;;;15.73;8.63;;;;;;;-4.21;69.21;96481.13;5004167;28;20251;-76
2023/02/11 05:44:41;;;;;;;15.90;8.50;;;;;;;-4.21;69.01;96487.09;5004148;28;20680;-77
2023/02/11 05:47:10;;;;;;;23.92;10.98;;;;;;;-4.02;69.65;96477.69;5055457;28;20211;-77
2023/02/11 05:49:36;;;;;;;18.50;10.15;;;;;;;-3.37;67.91;96481.69;5055134;28;20198;-78
2023/02/11 05:52:04;;;;;;;18.58;9.95;;;;;;;-2.57;65.20;96484.59;5055254;28;20198;-77
2023/02/11 05:54:30;;;;;;;18.48;9.93;;;;;;;-1.76;61.58;96484.63;5055185;28;20218;-77
2023/02/11 05:56:57;;;;;;;28.30;10.43;;;;;;;-0.99;59.38;96477.63;5039691;28;20227;-77
2023/02/11 05:59:24;;;;;;;17.55;9.73;;;;;;;-0.12;56.35;96480.53;5045855;28;20207;-77
2023/02/11 06:01:50;;;;;;;17.27;9.50;;;;;;;0.61;53.64;96474.00;5035141;28;20203;-76
2023/02/11 06:04:21;;;;;;;15.38;9.27;;;;;;;1.27;51.18;96482.88;5043536;28;20208;-80
2023/02/11 06:06:48;;;;;;;18.50;11.70;;;;;;;1.96;49.03;96487.22;5033985;28;20238;-77
2023/02/11 06:09:15;;;;;;;18.10;10.50;;;;;;;2.36;47.93;96485.31;5031949;28;20805;-78
2023/02/11 06:11:42;;;;;;;20.27;11.50;;;;;;;2.70;46.45;96485.22;5032499;28;20500;-77
2023/02/11 06:14:08;;;;;;;19.53;11.93;;;;;;;3.05;46.56;96488.53;5033342;28;20489;-77
2023/02/11 06:16:35;;;;;;;19.23;11.07;;;;;;;3.15;45.14;96489.09;5033999;28;20488;-77
2023/02/11 06:19:02;;;;;;;23.00;10.70;;;;;;;3.23;44.89;96493.19;5034180;28;20492;-78
2023/02/11 06:21:30;;;;;;;18.70;11.50;;;;;;;3.43;44.64;96493.38;5032321;28;20442;-77
2023/02/11 06:23:57;;;;;;;20.97;11.53;;;;;;;3.64;45.23;96486.69;5039195;28;20445;-77
2023/02/11 06:26:24;;;;;;;23.00;13.23;;;;;;;3.84;45.78;96488.66;5031679;28;20478;-79
2023/02/11 06:28:50;;;;;;;17.60;12.27;;;;;;;4.08;44.69;96492.19;4996101;28;20450;-77
2023/02/11 06:31:17;;;;;;;19.67;11.83;;;;;;;4.29;42.47;96486.22;5032675;28;20446;-79
2023/02/11 06:33:44;;;;;;;17.57;10.93;;;;;;;4.25;42.31;96489.84;5038163;28;20438;-78
2023/02/11 06:36:17;;;;;;;23.50;13.57;;;;;;;4.09;43.65;96478.28;5033896;28;20609;-78
2023/02/11 06:38:46;;;;;;;19.47;11.83;;;;;;;4.11;44.18;96488.63;5033245;28;20442;-79
2023/02/11 06:41:15;;;;;;;21.40;10.73;;;;;;;4.06;43.69;96487.94;4981476;28;20450;-78
2023/02/11 06:43:43;;;;;;;21.93;12.63;;;;;;;3.98;44.04;96486.44;5037772;28;20996;-77
2023/02/11 06:46:09;;;;;;;18.77;12.07;;;;;;;4.02;42.23;96481.97;5051470;28;20916;-79
2023/02/11 06:48:36;;;;;;;18.90;12.00;;;;;;;4.07;41.01;96485.28;5010719;28;20495;-77
2023/02/11 06:51:05;;;;;;;39.70;20.83;;;;;;;3.91;42.38;96494.47;5046926;28;20898;-76
2023/02/11 06:53:34;;;;;;;65.87;34.90;;;;;;;3.76;42.11;96493.25;5041746;28;20848;-78
2023/02/11 06:56:04;;;;;;;36.17;19.93;;;;;;;3.64;42.54;96493.63;5049873;28;20555;-77
2023/02/11 06:58:31;;;;;;;30.43;14.70;;;;;;;3.47;43.01;96498.47;5001029;28;20457;-77
2023/02/11 07:00:58;;;;;;;28.77;11.53;;;;;;;3.41;43.54;96491.75;5051351;28;20967;-76
2023/02/11 07:03:25;;;;;;;17.93;10.63;;;;;;;3.11;43.68;96502.16;5033861;28;20501;-77
2023/02/11 07:05:52;;;;;;;19.07;10.43;;;;;;;3.01;44.74;96494.69;5041842;28;20442;-76
2023/02/11 07:08:19;;;;;;;29.30;15.87;;;;;;;3.00;44.47;96499.03;5000221;28;20450;-78
2023/02/11 07:10:45;;;;;;;23.87;17.60;;;;;;;2.96;45.14;96488.81;5034351;28;20812;-78
2023/02/11 07:13:14;;;;;;;34.33;14.50;;;;;;;2.95;44.92;96493.16;5033239;28;20465;-78
2023/02/11 07:15:40;;;;;;;27.77;13.13;;;;;;;2.89;45.17;96485.56;5031656;28;20490;-77
2023/02/11 07:18:07;;;;;;;32.73;13.73;;;;;;;2.93;45.68;96494.94;5040728;28;20442;-77
2023/02/11 07:20:34;;;;;;;27.13;13.00;;;;;;;2.95;46.77;96487.97;5041199;28;20453;-77
2023/02/11 07:23:00;;;;;;;24.07;13.93;;;;;;;2.93;46.07;96487.16;5006726;28;20450;-77
2023/02/11 07:25:27;;;;;;;29.30;16.80;;;;;;;2.91;47.15;96473.41;5014089;28;20651;-77
2023/02/11 07:27:54;;;;;;;31.53;15.93;;;;;;;2.83;47.10;96469.31;5050044;28;20444;-77
2023/02/11 07:30:25;;;;;;;38.70;15.20;;;;;;;2.69;47.88;96470.56;5050765;28;20913;-77
2023/02/11 07:32:52;;;;;;;23.10;14.30;;;;;;;2.59;47.21;96470.84;5049713;28;20795;-77
2023/02/11 07:35:19;;;;;;;20.73;13.97;;;;;;;2.48;48.45;96468.56;5046513;28;20471;-77
2023/02/11 07:37:46;;;;;;;31.10;14.67;;;;;;;2.41;48.59;96470.50;5049779;28;20489;-77
2023/02/11 07:40:12;;;;;;;29.33;15.90;;;;;;;2.35;48.79;96464.63;5048133;28;20768;-77
2023/02/11 07:42:40;;;;;;;27.73;16.63;;;;;;;2.16;50.48;96466.88;5049221;28;20570;-76
2023/02/11 07:45:08;;;;;;;25.17;15.67;;;;;;;2.06;50.36;96455.91;5046076;28;20211;-76
2023/02/11 07:47:37;;;;;;;28.92;16.45;;;;;;;2.01;50.30;96455.16;5014283;28;20491;-77
2023/02/11 07:50:04;;;;;;;27.75;18.05;;;;;;;1.82;50.99;96454.81;5031814;28;20294;-78
2023/02/11 07:52:31;;;;;;;28.67;15.68;;;;;;;1.68;51.81;96459.47;5031864;28;20210;-77
2023/02/11 07:54:57;;;;;;;32.13;18.02;;;;;;;1.58;52.19;96457.16;5047039;28;20195;-77
2023/02/11 07:57:28;;;;;;;37.47;18.93;;;;;;;1.39;52.16;96449.81;5035318;28;20230;-77
2023/02/11 08:00:10;;;;;;;38.17;20.40;;;;;;;1.06;53.83;96456.63;5032880;28;20454;-76
2023/02/11 08:02:38;;;;;;;42.95;22.05;;;;;;;1.01;55.01;96450.72;5040791;28;20202;-76
2023/02/11 08:05:06;;;;;;;36.17;20.02;;;;;;;0.93;55.41;96445.72;5038491;28;20199;-77
2023/02/11 08:07:33;;;;;;;31.45;20.40;;;;;;;0.95;56.07;96442.25;5031439;28;20208;-76
2023/02/11 08:09:59;;;;;;;39.40;22.58;;;;;;;0.89;56.77;96448.41;5031304;28;20207;-76
2023/02/11 08:12:26;;;;;;;42.03;21.60;;;;;;;0.82;57.20;96446.81;5031398;28;20609;-77
2023/02/11 08:14:53;;;;;;;41.95;25.00;;;;;;;0.75;57.60;96446.13;5034284;28;20657;-77
2023/02/11 08:17:19;;;;;;;35.75;20.67;;;;;;;0.81;58.21;96437.38;5034664;28;20234;-77
2023/02/11 08:19:48;;;;;;;37.60;18.40;;;;;;;0.81;57.89;96437.38;5011162;28;20246;-77
2023/02/11 08:22:14;;;;;;;32.35;19.10;;;;;;;0.82;59.93;96444.25;5050007;28;20209;-77
2023/02/11 08:24:41;;;;;;;29.98;16.25;;;;;;;0.79;57.22;96436.56;5031450;28;20207;-77
2023/02/11 08:27:08;;;;;;;36.92;18.90;;;;;;;0.83;58.57;96431.28;5039762;28;20614;-77
2023/02/11 08:29:36;;;;;;;30.98;18.20;;;;;;;0.88;57.62;96439.81;5040913;28;20207;-77
2023/02/11 08:32:03;;;;;;;34.08;18.73;;;;;;;0.85;57.30;96444.19;5032606;28;20205;-77
2023/02/11 08:34:29;;;;;;;40.70;19.17;;;;;;;0.93;58.66;96439.72;4992007;28;20674;-77
2023/02/11 08:36:58;;;;;;;29.27;18.50;;;;;;;0.92;57.45;96440.59;5034654;28;20733;-76
2023/02/11 08:39:24;;;;;;;35.38;16.75;;;;;;;1.03;57.83;96448.94;5045431;28;20261;-77
2023/02/11 08:41:53;;;;;;;33.08;18.83;;;;;;;1.04;57.82;96444.63;5039620;28;20214;-77
2023/02/11 08:44:21;;;;;;;31.15;16.67;;;;;;;0.83;57.94;96440.78;5039355;28;20203;-77
2023/02/11 08:46:49;;;;;;;26.33;16.02;;;;;;;0.86;57.74;96440.72;5040167;28;20249;-77
2023/02/11 08:49:16;;;;;;;34.75;18.13;;;;;;;0.98;58.50;96444.78;5040937;28;20195;-77
2023/02/11 08:51:43;;;;;;;40.13;22.17;;;;;;;1.12;57.71;96447.88;5042475;28;20206;-77
2023/02/11 08:54:13;;;;;;;42.53;21.42;;;;;;;1.30;58.17;96437.13;5046690;28;20779;-77
2023/02/11 08:56:39;;;;;;;36.72;18.08;;;;;;;1.58;57.84;96436.44;5035204;28;20250;-77
2023/02/11 08:59:07;;;;;;;39.05;21.25;;;;;;;1.75;59.11;96431.72;5035577;28;20261;-77
2023/02/11 09:01:35;;;;;;;40.17;20.80;;;;;;;1.89;54.92;96429.59;5010699;28;20230;-77
2023/02/11 09:04:01;;;;;;;35.63;18.10;;;;;;;2.02;55.73;96443.91;5035645;28;20200;-77
2023/02/11 09:06:29;;;;;;;32.78;19.85;;;;;;;2.27;55.43;96436.34;5045028;28;20203;-78
2023/02/11 09:08:57;;;;;;;36.65;19.13;;;;;;;2.56;54.54;96434.66;5054642;28;20699;-78
2023/02/11 09:11:30;;;;;;;42.47;20.90;;;;;;;2.68;54.73;96423.97;5036991;28;20261;-77
2023/02/11 09:14:03;;;;;;;29.45;16.40;;;;;;;2.76;52.30;96437.53;5040973;28;20688;-77
2023/02/11 09:16:31;;;;;;;32.92;17.70;;;;;;;2.96;51.72;96429.19;4997724;28;20280;-78
2023/02/11 09:19:00;;;;;;;32.95;19.90;;;;;;;2.98;53.22;96422.19;5048341;28;20670;-77
2023/02/11 09:21:30;;;;;;;40.23;19.37;;;;;;;3.09;51.70;96420.13;5053500;28;20210;-77
2023/02/11 09:23:58;;;;;;;31.47;16.60;;;;;;;3.10;51.28;96421.81;5040233;28;20473;-77
2023/02/11 09:26:28;;;;;;;38.53;18.03;;;;;;;2.98;51.49;96428.22;5035774;28;20486;-77
2023/02/11 09:28:55;;;;;;;30.52;16.63;;;;;;;2.79;51.02;96427.06;5035746;28;20445;-77
2023/02/11 09:31:24;;;;;;;34.90;16.83;;;;;;;2.86;51.42;96417.38;5034659;28;20658;-77
2023/02/11 09:33:53;;;;;;;40.00;16.05;;;;;;;2.75;52.25;96410.78;5035652;28;20211;-78
2023/02/11 09:36:22;;;;;;;36.97;17.30;;;;;;;2.79;52.22;96408.94;5045089;28;20201;-78
2023/02/11 09:38:49;;;;;;;32.25;18.25;;;;;;;2.80;54.30;96413.22;5042854;28;20208;-77
2023/02/11 09:41:33;;;;;;;41.38;20.85;;;;;;;2.96;54.52;96404.09;5051257;28;20203;-77
2023/02/11 09:44:04;;;;;;;30.03;16.23;;;;;;;3.05;53.20;96401.22;5048500;28;20299;-77
2023/02/11 09:46:34;;;;;;;29.67;17.23;;;;;;;2.92;51.80;96397.31;5040229;28;20532;-78
2023/02/11 09:49:02;;;;;;;41.87;17.13;;;;;;;2.95;52.82;96386.84;5048244;28;20454;-76
2023/02/11 09:51:39;;;;;;;26.47;16.87;;;;;;;2.92;51.93;96386.09;5036381;28;20450;-77
2023/02/11 09:54:13;;;;;;;35.90;17.27;;;;;;;2.85;52.53;96389.75;5035351;28;21052;-77
2023/02/11 09:56:41;;;;;;;31.67;16.13;;;;;;;2.97;52.75;96379.88;5041063;28;20234;-77
2023/02/11 09:59:13;;;;;;;33.17;18.88;;;;;;;3.08;52.63;96372.59;5053886;28;20928;-77
2023/02/11 10:01:47;;;;;;;26.33;16.80;;;;;;;3.15;51.95;96372.38;5044222;28;20203;-77
2023/02/11 10:04:24;;;;;;;44.07;18.07;;;;;;;3.36;52.64;96361.31;5035488;28;20446;-77
2023/02/11 10:06:54;;;;;;;34.67;16.57;;;;;;;3.49;52.03;96356.59;5035787;28;21213;-78
2023/02/11 10:09:48;;;;;;;31.30;17.67;;;;;;;3.44;51.91;96348.94;5038838;28;20886;-77
2023/02/11 10:12:32;;;;;;;27.80;16.40;;;;;;;3.65;53.13;96340.44;4979299;28;20892;-77
2023/02/11 10:15:13;;;;;;;33.10;17.70;;;;;;;3.74;52.41;96342.69;4992326;28;20451;-78
2023/02/11 10:17:53;;;;;;;53.53;16.30;;;;;;;3.92;50.66;96340.38;4992723;28;20483;-77
2023/02/11 10:20:28;;;;;;;29.40;16.70;;;;;;;3.98;49.76;96327.16;4979293;28;20453;-78
2023/02/11 10:22:57;;;;;;;42.37;22.27;;;;;;;3.89;48.90;96322.31;4992950;28;20498;-78
2023/02/11 10:25:27;;;;;;;29.17;17.70;;;;;;;3.84;50.55;96321.63;4987802;28;20582;-78
2023/02/11 10:27:59;;;;;;;28.37;16.77;;;;;;;3.83;50.34;96312.16;4991366;28;21017;-77
2023/02/11 10:30:30;;;;;;;35.33;18.13;;;;;;;3.78;50.89;96306.28;4991576;28;20970;-77
2023/02/11 10:33:03;;;;;;;36.30;16.50;;;;;;;3.90;50.86;96298.03;4992720;28;20454;-77
2023/02/11 10:35:29;;;;;;;29.43;16.77;;;;;;;4.02;50.30;96290.63;4990165;28;20470;-78
2023/02/11 10:37:56;;;;;;;27.17;15.93;;;;;;;4.13;49.96;96277.28;4989579;28;20983;-78
2023/02/11 10:40:26;;;;;;;35.57;16.40;;;;;;;4.18;48.93;96264.09;4991689;28;20510;-78
2023/02/11 10:42:59;;;;;;;34.50;18.20;;;;;;;4.30;49.54;96264.47;4986831;28;20441;-78
2023/02/11 10:45:32;;;;;;;32.23;16.17;;;;;;;4.39;49.07;96262.44;4985600;28;20869;-78
2023/02/11 10:47:59;;;;;;;29.10;16.60;;;;;;;4.27;48.48;96254.19;4986044;28;20459;-77
2023/02/11 10:50:28;;;;;;;26.33;15.00;;;;;;;4.07;48.08;96250.69;4998989;28;20525;-77
2023/02/11 10:53:13;;;;;;;32.50;16.97;;;;;;;3.98;49.03;96246.66;5034626;28;20794;-76
2023/02/11 10:55:48;;;;;;;31.67;16.10;;;;;;;4.07;48.28;96241.13;5044860;28;20472;-77
2023/02/11 10:58:24;;;;;;;28.13;17.60;;;;;;;4.10;48.02;96235.81;5033938;28;20496;-76
2023/02/11 11:00:53;;;;;;;23.70;15.03;;;;;;;4.08;48.37;96224.66;5042973;28;20846;-77
2023/02/11 11:03:22;;;;;;;28.10;15.97;;;;;;;3.86;48.60;96226.34;5002175;28;20941;-77
2023/02/11 11:05:52;;;;;;;27.07;15.50;;;;;;;3.84;48.76;96229.00;5046459;28;20599;-77
2023/02/11 11:08:20;;;;;;;31.70;18.47;;;;;;;3.73;48.44;96229.38;5043944;28;20528;-77
2023/02/11 11:10:49;;;;;;;22.73;14.23;;;;;;;3.86;47.29;96223.75;5041723;28;20460;-77
2023/02/11 11:13:30;;;;;;;21.87;13.37;;;;;;;3.93;48.62;96223.47;5033931;28;20449;-77
2023/02/11 11:16:20;;;;;;;27.40;13.93;;;;;;;4.08;47.35;96223.81;5043489;28;20453;-77
2023/02/11 11:18:48;;;;;;;34.73;17.33;;;;;;;4.00;45.76;96224.06;5034144;28;20482;-78
2023/02/11 11:21:19;;;;;;;32.40;17.10;;;;;;;3.96;46.08;96217.31;5043855;28;20490;-76
2023/02/11 11:23:52;;;;;;;37.73;17.70;;;;;;;3.93;46.38;96209.63;5044125;28;21049;-77
2023/02/11 11:26:20;;;;;;;31.03;18.50;;;;;;;3.89;46.41;96203.72;5016870;28;20473;-77
2023/02/11 11:29:07;;;;;;;28.80;15.20;;;;;;;3.96;45.88;96202.56;5007770;28;20476;-77
2023/02/11 11:31:45;;;;;;;24.53;15.57;;;;;;;4.07;46.81;96201.34;5018971;28;20510;-77
2023/02/11 11:34:21;;;;;;;27.57;15.90;;;;;;;4.13;46.92;96209.72;5015113;28;20450;-77
2023/02/11 11:36:50;;;;;;;19.43;12.10;;;;;;;4.19;46.74;96209.50;5032803;28;20856;-77
2023/02/11 11:39:29;;;;;;;25.27;13.47;;;;;;;4.31;46.42;96198.59;5033095;28;20500;-77